Time;durP1;ratioP1;P1;durP2;ratioP2;P2;SDS_P1;SDS_P2;PMS_P1;PMS_P2;Temp;Humidity;BMP_temperature;BMP_pressure;BME280_temperature;BME280_humidity;BME280_pressure;Samples;Min_cycle;Max_cycle;Signal;HPM_P1;HPM_P2
2022/04/23 00:04:18;;;;;;;4.50;2.38;;;;;;;;;;10405890;28;20484;-71
2022/04/23 00:09:18;;;;;;;4.18;2.45;;;;;;;;;;10422938;28;20588;-70
2022/04/23 00:14:19;;;;;;;4.95;2.47;;;;;;;;;;10423180;28;20059;-74
2022/04/23 00:19:20;;;;;;;4.90;1.98;;;;;;;;;;10441220;28;20021;-71
2022/04/23 00:24:20;;;;;;;8.35;2.75;;;;;;;;;;10443265;28;20091;-72
2022/04/23 00:29:21;;;;;;;4.80;2.10;;;;;;;;;;10443417;28;20025;-74
2022/04/23 00:34:21;;;;;;;3.83;2.63;;;;;;;;;;10422992;28;20386;-71
2022/04/23 00:39:21;;;;;;;5.63;1.98;;;;;;;;;;10410703;28;20071;-75
2022/04/23 00:44:21;;;;;;;6.47;1.50;;;;;;;;;;10410485;28;20481;-75
2022/04/23 00:49:22;;;;;;;6.75;2.08;;;;;;;;;;10426544;28;20029;-72
2022/04/23 00:54:22;;;;;;;8.00;1.90;;;;;;;;;;10425541;28;20530;-74
2022/04/23 00:59:22;;;;;;;20.63;3.38;;;;;;;;;;10425485;28;20067;-70
2022/04/23 01:04:22;;;;;;;9.60;2.30;;;;;;;;;;10425935;28;20021;-75
2022/04/23 01:09:23;;;;;;;2.58;1.92;;;;;;;;;;10425518;28;20444;-71
2022/04/23 01:14:23;;;;;;;6.43;2.00;;;;;;;;;;10408401;28;20568;-71
2022/04/23 01:19:25;;;;;;;6.17;1.80;;;;;;;;;;10424748;28;20009;-72
2022/04/23 01:24:26;;;;;;;6.75;2.20;;;;;;;;;;10413986;28;20069;-69
2022/04/23 01:29:28;;;;;;;10.82;2.40;;;;;;;;;;10424264;28;20352;-71
2022/04/23 01:34:28;;;;;;;9.95;2.10;;;;;;;;;;10424144;28;20028;-72
2022/04/23 01:39:28;;;;;;;7.50;2.30;;;;;;;;;;10408811;28;20018;-71
2022/04/23 01:44:29;;;;;;;11.43;2.00;;;;;;;;;;10422855;28;20033;-74
2022/04/23 01:49:29;;;;;;;3.83;2.10;;;;;;;;;;10406995;28;20022;-71
2022/04/23 01:54:29;;;;;;;6.28;1.90;;;;;;;;;;10406857;28;20044;-75
2022/04/23 01:59:30;;;;;;;12.57;2.10;;;;;;;;;;10406703;28;20208;-76
2022/04/23 02:04:30;;;;;;;4.25;2.10;;;;;;;;;;10407886;28;20496;-73
2022/04/23 02:09:30;;;;;;;7.27;2.27;;;;;;;;;;10422919;28;20037;-73
2022/04/23 02:14:31;;;;;;;6.88;2.00;;;;;;;;;;10422624;28;20025;-75
2022/04/23 02:19:32;;;;;;;7.40;2.00;;;;;;;;;;10422717;28;20083;-73
2022/04/23 02:24:32;;;;;;;2.63;2.03;;;;;;;;;;10376008;28;20061;-70
2022/04/23 02:29:32;;;;;;;4.43;2.40;;;;;;;;;;10386493;28;20030;-71
2022/04/23 02:34:32;;;;;;;5.05;2.33;;;;;;;;;;10388261;28;20021;-70
2022/04/23 02:39:33;;;;;;;6.20;2.97;;;;;;;;;;10387924;28;20029;-69
2022/04/23 02:44:34;;;;;;;8.63;2.83;;;;;;;;;;10387867;28;20024;-75
2022/04/23 02:49:34;;;;;;;6.70;2.90;;;;;;;;;;10404429;28;20025;-75
2022/04/23 02:54:34;;;;;;;6.28;2.70;;;;;;;;;;10384481;28;20021;-72
2022/04/23 02:59:35;;;;;;;7.53;2.83;;;;;;;;;;10384141;28;20104;-76
2022/04/23 03:04:35;;;;;;;6.22;2.50;;;;;;;;;;10385896;28;20025;-74
2022/04/23 03:09:35;;;;;;;8.33;2.80;;;;;;;;;;10383937;28;20009;-75
2022/04/23 03:14:36;;;;;;;6.43;3.38;;;;;;;;;;10404143;28;20033;-73
2022/04/23 03:19:36;;;;;;;5.75;2.13;;;;;;;;;;10391578;28;20020;-73
2022/04/23 03:24:36;;;;;;;8.10;2.85;;;;;;;;;;10394577;28;20546;-71
2022/04/23 03:29:37;;;;;;;11.20;2.50;;;;;;;;;;10403735;28;20031;-77
2022/04/23 03:34:38;;;;;;;5.00;2.60;;;;;;;;;;10404217;28;20021;-72
2022/04/23 03:39:39;;;;;;;7.20;2.47;;;;;;;;;;10413417;28;20756;-77
2022/04/23 03:44:39;;;;;;;7.97;2.70;;;;;;;;;;10426331;28;20025;-75
2022/04/23 03:49:40;;;;;;;12.18;2.85;;;;;;;;;;10426002;28;20580;-74
2022/04/23 03:54:41;;;;;;;7.65;2.80;;;;;;;;;;10444037;28;20032;-74
2022/04/23 03:59:42;;;;;;;5.00;2.57;;;;;;;;;;10426510;28;20131;-75
2022/04/23 04:04:43;;;;;;;4.43;2.17;;;;;;;;;;10386172;28;20157;-77
2022/04/23 04:09:44;;;;;;;13.48;3.05;;;;;;;;;;10391955;28;20018;-71
2022/04/23 04:14:44;;;;;;;7.93;2.77;;;;;;;;;;10443533;28;20032;-74
2022/04/23 04:19:44;;;;;;;3.70;2.55;;;;;;;;;;10432334;28;20017;-73
2022/04/23 04:24:45;;;;;;;7.13;2.80;;;;;;;;;;10451314;28;20076;-69
2022/04/23 04:29:45;;;;;;;7.43;3.17;;;;;;;;;;10449797;28;20037;-72
2022/04/23 04:34:45;;;;;;;7.80;4.47;;;;;;;;;;10432040;28;20021;-73
2022/04/23 04:39:46;;;;;;;9.07;2.55;;;;;;;;;;10431604;28;20267;-69
2022/04/23 04:44:46;;;;;;;4.93;2.85;;;;;;;;;;10431349;28;20487;-73
2022/04/23 04:49:46;;;;;;;6.90;3.23;;;;;;;;;;10449105;28;20420;-70
2022/04/23 04:54:47;;;;;;;9.82;2.78;;;;;;;;;;10449778;28;20480;-73
2022/04/23 04:59:47;;;;;;;9.43;2.75;;;;;;;;;;10450138;28;20104;-71
2022/04/23 05:04:47;;;;;;;13.80;3.17;;;;;;;;;;10444630;28;20090;-70
2022/04/23 05:09:47;;;;;;;9.43;3.13;;;;;;;;;;10433332;28;20032;-70
2022/04/23 05:14:48;;;;;;;7.60;2.50;;;;;;;;;;10450451;28;20078;-75
2022/04/23 05:19:48;;;;;;;9.85;2.85;;;;;;;;;;10432799;28;20488;-74
2022/04/23 05:24:48;;;;;;;10.07;3.40;;;;;;;;;;10450346;28;20516;-71
2022/04/23 05:29:48;;;;;;;13.15;3.30;;;;;;;;;;10429069;28;20029;-74
2022/04/23 05:34:49;;;;;;;11.05;3.70;;;;;;;;;;10450134;28;20041;-72
2022/04/23 05:39:49;;;;;;;15.43;4.38;;;;;;;;;;10431734;28;20078;-72
2022/04/23 05:44:49;;;;;;;13.10;4.05;;;;;;;;;;10425101;28;20040;-73
2022/04/23 05:49:49;;;;;;;10.55;3.60;;;;;;;;;;10449559;28;20496;-74
2022/04/23 05:54:50;;;;;;;14.45;4.15;;;;;;;;;;10431010;28;20509;-78
2022/04/23 05:59:51;;;;;;;14.57;3.70;;;;;;;;;;10430649;28;20025;-73
2022/04/23 06:04:52;;;;;;;11.80;3.63;;;;;;;;;;10447752;28;20511;-72
2022/04/23 06:09:52;;;;;;;7.50;3.28;;;;;;;;;;10430436;28;20267;-75
2022/04/23 06:14:52;;;;;;;9.53;3.23;;;;;;;;;;10448537;28;20470;-75
2022/04/23 06:19:53;;;;;;;7.40;2.40;;;;;;;;;;10429667;28;20259;-75
2022/04/23 06:24:54;;;;;;;11.27;3.15;;;;;;;;;;10446699;28;20083;-76
2022/04/23 06:29:54;;;;;;;9.00;3.33;;;;;;;;;;10450131;28;20032;-74
2022/04/23 06:34:55;;;;;;;13.95;3.53;;;;;;;;;;10446007;28;20515;-72
2022/04/23 06:39:55;;;;;;;8.43;2.80;;;;;;;;;;10446196;28;20477;-73
2022/04/23 06:44:55;;;;;;;6.60;3.03;;;;;;;;;;10446764;28;20080;-72
2022/04/23 06:49:59;;;;;;;5.83;2.47;;;;;;;;;;10446858;28;20029;-77
2022/04/23 06:54:59;;;;;;;11.13;2.85;;;;;;;;;;10443543;28;20037;-79
2022/04/23 07:00:01;;;;;;;8.23;2.72;;;;;;;;;;10444983;28;20031;-73
2022/04/23 07:05:01;;;;;;;11.20;2.92;;;;;;;;;;10461529;28;20433;-77
2022/04/23 07:10:01;;;;;;;9.77;3.10;;;;;;;;;;10443657;28;20098;-73
2022/04/23 07:15:03;;;;;;;12.93;3.50;;;;;;;;;;10446809;28;20033;-77
2022/04/23 07:20:04;;;;;;;9.40;3.10;;;;;;;;;;10424906;28;20025;-78
2022/04/23 07:25:06;;;;;;;9.10;3.63;;;;;;;;;;10460108;28;20465;-72
2022/04/23 07:30:07;;;;;;;12.30;3.92;;;;;;;;;;10444731;28;20275;-72
2022/04/23 07:40:26;;;;;;;9.20;4.32;;;;;;;;;;10445928;28;20029;-76
2022/04/23 07:45:27;;;;;;;8.07;2.42;;;;;;;;;;10452044;28;20480;-72
2022/04/23 07:50:27;;;;;;;6.70;3.00;;;;;;;;;;10468910;28;20029;-71
2022/04/23 07:55:30;;;;;;;6.32;2.10;;;;;;;;;;10432863;28;20033;-73
2022/04/23 08:00:31;;;;;;;6.97;2.65;;;;;;;;;;10442660;28;20028;-78
2022/04/23 08:05:32;;;;;;;10.50;2.50;;;;;;;;;;10445307;28;20107;-76
2022/04/23 08:10:32;;;;;;;7.78;2.53;;;;;;;;;;10448656;28;20099;-77
2022/04/23 08:15:33;;;;;;;13.60;2.87;;;;;;;;;;10435030;28;20027;-75
2022/04/23 08:20:34;;;;;;;6.88;2.78;;;;;;;;;;10426226;28;20492;-72
2022/04/23 08:25:34;;;;;;;7.45;2.67;;;;;;;;;;10455176;28;20136;-77
2022/04/23 08:30:34;;;;;;;9.52;2.88;;;;;;;;;;10441262;28;20480;-77
2022/04/23 08:35:36;;;;;;;6.28;2.47;;;;;;;;;;10446676;28;20029;-77
2022/04/23 08:40:38;;;;;;;5.53;2.47;;;;;;;;;;10450626;28;20021;-73
2022/04/23 08:45:39;;;;;;;6.47;2.60;;;;;;;;;;10446125;28;20094;-72
2022/04/23 08:50:40;;;;;;;6.87;2.30;;;;;;;;;;10446052;28;20439;-75
2022/04/23 08:55:44;;;;;;;4.50;1.60;;;;;;;;;;10435542;28;20279;-71
2022/04/23 09:00:44;;;;;;;4.43;1.40;;;;;;;;;;10449018;28;20029;-72
2022/04/23 09:05:51;;;;;;;3.90;2.40;;;;;;;;;;10432714;28;20025;-75
2022/04/23 09:10:54;;;;;;;2.65;1.73;;;;;;;;;;10441351;28;20037;-77
2022/04/23 09:27:06;;;;;;;7.35;1.33;;;;;;;;;;10483232;28;20058;-73
2022/04/23 09:32:19;;;;;;;6.00;1.40;;;;;;;;;;10462838;28;20036;-74
2022/04/23 09:38:11;;;;;;;2.70;1.73;;;;;;;;;;10462183;28;20032;-74
2022/04/23 09:42:59;;;;;;;5.32;1.95;;;;;;;;;;10486833;28;20047;-76
2022/04/23 09:48:02;;;;;;;3.30;1.55;;;;;;;;;;10477584;28;20025;-76
2022/04/23 09:53:10;;;;;;;8.32;1.50;;;;;;;;;;10465685;28;20024;-75
2022/04/23 09:58:10;;;;;;;2.15;1.52;;;;;;;;;;10444471;28;20025;-76
2022/04/23 10:03:11;;;;;;;7.72;3.58;;;;;;;;;;10485189;28;20028;-76
2022/04/23 10:08:13;;;;;;;8.70;1.67;;;;;;;;;;10468250;28;20242;-75
2022/04/23 10:13:13;;;;;;;2.70;1.80;;;;;;;;;;10456282;23;20187;-72
2022/04/23 10:18:14;;;;;;;6.13;2.08;;;;;;;;;;10422017;28;20145;-75
2022/04/23 10:23:40;;;;;;;2.88;1.23;;;;;;;;;;10420791;28;20029;-72
2022/04/23 10:28:42;;;;;;;9.35;1.55;;;;;;;;;;10443064;28;20025;-71
2022/04/23 10:33:44;;;;;;;8.70;1.42;;;;;;;;;;10465266;28;20183;-73
2022/04/23 10:38:51;;;;;;;2.97;1.30;;;;;;;;;;10464066;28;20035;-74
2022/04/23 10:43:57;;;;;;;3.75;1.52;;;;;;;;;;10465804;28;20033;-69
2022/04/23 10:49:13;;;;;;;3.13;1.60;;;;;;;;;;10462804;28;20543;-74
2022/04/23 10:54:16;;;;;;;8.40;1.40;;;;;;;;;;10465529;28;20506;-73
2022/04/23 10:59:32;;;;;;;7.40;1.20;;;;;;;;;;10475641;28;20097;-70
2022/04/23 11:04:35;;;;;;;8.50;1.40;;;;;;;;;;10466549;28;20425;-69
2022/04/23 11:14:52;;;;;;;8.10;1.58;;;;;;;;;;10427139;28;20037;-72
2022/04/23 11:19:53;;;;;;;13.13;1.75;;;;;;;;;;10411598;28;20025;-71
2022/04/23 11:24:53;;;;;;;6.72;3.63;;;;;;;;;;10402878;28;20025;-70
2022/04/23 11:29:54;;;;;;;3.95;1.58;;;;;;;;;;10425189;28;20043;-70
2022/04/23 11:35:04;;;;;;;7.60;3.25;;;;;;;;;;10440342;28;20116;-70
2022/04/23 11:40:05;;;;;;;5.47;1.85;;;;;;;;;;10435969;28;20036;-71
2022/04/23 11:45:06;;;;;;;7.43;1.98;;;;;;;;;;10412609;28;20025;-73
2022/04/23 11:50:14;;;;;;;11.63;2.30;;;;;;;;;;10451042;28;20116;-73
2022/04/23 11:55:21;;;;;;;5.20;1.30;;;;;;;;;;10417575;28;20064;-73
2022/04/23 12:00:22;;;;;;;5.95;1.50;;;;;;;;;;10416187;28;20106;-74
2022/04/23 12:05:28;;;;;;;2.70;1.00;;;;;;;;;;10431122;28;20218;-73
2022/04/23 12:10:29;;;;;;;10.63;2.17;;;;;;;;;;10409345;28;20048;-74
2022/04/23 12:15:29;;;;;;;1.90;1.20;;;;;;;;;;10414463;28;20091;-75
2022/04/23 12:20:34;;;;;;;5.60;1.00;;;;;;;;;;10395460;28;20033;-74
2022/04/23 12:25:36;;;;;;;4.60;1.17;;;;;;;;;;10384513;28;20039;-70
2022/04/23 12:41:14;;;;;;;2.92;1.00;;;;;;;;;;10408272;28;20018;-70
2022/04/23 12:46:14;;;;;;;7.03;1.23;;;;;;;;;;10391785;28;20424;-74
2022/04/23 12:51:15;;;;;;;5.55;2.28;;;;;;;;;;10392591;28;20268;-70
2022/04/23 12:56:18;;;;;;;5.95;1.20;;;;;;;;;;10380884;28;20087;-71
2022/04/23 13:01:19;;;;;;;10.07;1.58;;;;;;;;;;10393622;28;20021;-71
2022/04/23 13:11:38;;;;;;;5.38;1.38;;;;;;;;;;10408623;28;20041;-72
2022/04/23 13:16:39;;;;;;;8.47;1.50;;;;;;;;;;10399531;28;20493;-74
2022/04/23 13:21:40;;;;;;;7.25;2.45;;;;;;;;;;10410266;28;20052;-70
2022/04/23 13:26:40;;;;;;;7.90;1.10;;;;;;;;;;10389542;28;20101;-70
2022/04/23 13:31:41;;;;;;;2.47;1.13;;;;;;;;;;10409045;28;20017;-74
2022/04/23 13:36:41;;;;;;;4.03;1.60;;;;;;;;;;10397683;28;20087;-75
2022/04/23 13:41:42;;;;;;;4.55;0.95;;;;;;;;;;10394692;28;20090;-73
2022/04/23 13:46:43;;;;;;;5.43;1.38;;;;;;;;;;10388800;28;20021;-74
2022/04/23 13:51:43;;;;;;;4.17;1.20;;;;;;;;;;10398138;28;20025;-72
2022/04/23 13:56:43;;;;;;;2.38;1.05;;;;;;;;;;10409510;28;20415;-70
2022/04/23 14:12:22;;;;;;;5.57;1.33;;;;;;;;;;10407275;28;20049;-76
2022/04/23 14:17:22;;;;;;;9.65;1.70;;;;;;;;;;10393169;28;20029;-70
2022/04/23 14:22:22;;;;;;;5.97;1.48;;;;;;;;;;10388398;28;20040;-74
2022/04/23 14:27:23;;;;;;;3.80;1.10;;;;;;;;;;10403304;28;20032;-73
2022/04/23 14:32:23;;;;;;;2.88;1.10;;;;;;;;;;10411317;28;20042;-73
2022/04/23 14:37:23;;;;;;;5.22;1.45;;;;;;;;;;10416499;28;20021;-75
2022/04/23 14:42:24;;;;;;;3.67;1.40;;;;;;;;;;10435859;28;20040;-77
2022/04/23 14:47:25;;;;;;;3.30;1.40;;;;;;;;;;10412363;28;20586;-74
2022/04/23 14:57:44;;;;;;;3.42;1.25;;;;;;;;;;10438835;28;20136;-73
2022/04/23 15:02:45;;;;;;;2.33;0.98;;;;;;;;;;10405712;28;20033;-77
2022/04/23 15:07:45;;;;;;;4.57;1.50;;;;;;;;;;10429616;28;20346;-75
2022/04/23 15:12:46;;;;;;;5.25;1.38;;;;;;;;;;10449427;28;20198;-75
2022/04/23 15:17:46;;;;;;;4.93;1.40;;;;;;;;;;10457656;28;20070;-75
2022/04/23 15:22:48;;;;;;;11.75;1.63;;;;;;;;;;10463700;28;20410;-74
2022/04/23 15:27:54;;;;;;;4.72;1.10;;;;;;;;;;10466282;28;20064;-70
2022/04/23 15:32:57;;;;;;;8.55;2.35;;;;;;;;;;10455411;28;20041;-73
2022/04/23 15:37:57;;;;;;;4.28;1.00;;;;;;;;;;10447872;28;20507;-73
2022/04/23 15:42:58;;;;;;;1.43;0.67;;;;;;;;;;10465913;28;20033;-74
2022/04/23 15:47:58;;;;;;;4.27;1.47;;;;;;;;;;10459135;28;20575;-73
2022/04/23 15:52:58;;;;;;;1.63;1.30;;;;;;;;;;10453242;28;20579;-74
2022/04/23 15:57:59;;;;;;;5.07;1.50;;;;;;;;;;10455634;28;20032;-75
2022/04/23 16:08:18;;;;;;;10.35;1.33;;;;;;;;;;10479919;28;20033;-73
2022/04/23 16:13:18;;;;;;;1.75;0.80;;;;;;;;;;10457865;28;20052;-74
2022/04/23 16:18:18;;;;;;;2.50;1.55;;;;;;;;;;10454859;28;20024;-71
2022/04/23 16:23:18;;;;;;;3.42;1.77;;;;;;;;;;10448794;28;20119;-71
2022/04/23 16:28:19;;;;;;;5.18;1.10;;;;;;;;;;10440535;28;20028;-74
2022/04/23 16:33:20;;;;;;;4.30;1.20;;;;;;;;;;10439980;28;20028;-74
2022/04/23 16:49:12;;;;;;;7.22;1.50;;;;;;;;;;10435165;28;20076;-78
2022/04/23 16:54:12;;;;;;;5.78;1.50;;;;;;;;;;10437467;28;20184;-71
2022/04/23 16:59:13;;;;;;;4.97;1.45;;;;;;;;;;10438287;28;20021;-74
2022/04/23 17:04:13;;;;;;;3.58;1.25;;;;;;;;;;10440183;28;20051;-77
2022/04/23 17:09:13;;;;;;;5.85;1.77;;;;;;;;;;10432265;28;20037;-71
2022/04/23 17:14:13;;;;;;;4.10;1.30;;;;;;;;;;10424834;28;20051;-70
2022/04/23 17:19:14;;;;;;;3.88;1.13;;;;;;;;;;10428303;28;20120;-75
2022/04/23 17:24:18;;;;;;;10.80;1.65;;;;;;;;;;10435380;28;20036;-74
2022/04/23 17:29:18;;;;;;;3.10;1.65;;;;;;;;;;10427762;28;20033;-75
2022/04/23 17:34:18;;;;;;;3.03;1.40;;;;;;;;;;10421591;28;20146;-71
2022/04/23 17:39:19;;;;;;;3.37;1.50;;;;;;;;;;10442055;28;20131;-71
2022/04/23 17:44:20;;;;;;;11.23;3.30;;;;;;;;;;10407544;28;20279;-71
2022/04/23 17:49:20;;;;;;;9.48;4.00;;;;;;;;;;10438422;28;20488;-71
2022/04/23 17:54:22;;;;;;;15.00;4.07;;;;;;;;;;10425216;28;20556;-74
2022/04/23 17:59:23;;;;;;;10.73;3.88;;;;;;;;;;10428030;28;20524;-75
2022/04/23 18:10:02;;;;;;;10.45;3.50;;;;;;;;;;10392528;28;20045;-73
2022/04/23 18:15:02;;;;;;;9.32;3.42;;;;;;;;;;10411405;28;20099;-69
2022/04/23 18:20:03;;;;;;;8.57;3.03;;;;;;;;;;10390007;28;20558;-72
2022/04/23 18:25:04;;;;;;;11.23;4.07;;;;;;;;;;10397716;28;20048;-70
2022/04/23 18:30:06;;;;;;;9.02;3.30;;;;;;;;;;10389931;28;20029;-70
2022/04/23 18:35:07;;;;;;;6.15;3.15;;;;;;;;;;10387154;28;20121;-71
2022/04/23 18:40:08;;;;;;;8.75;3.63;;;;;;;;;;10397486;28;20025;-71
2022/04/23 18:45:09;;;;;;;11.77;3.42;;;;;;;;;;10427068;28;20021;-71
2022/04/23 18:50:11;;;;;;;10.07;3.05;;;;;;;;;;10408205;28;20031;-71
2022/04/23 18:55:11;;;;;;;5.53;3.20;;;;;;;;;;10431644;28;20128;-71
2022/04/23 19:00:13;;;;;;;5.60;2.73;;;;;;;;;;10426850;28;20050;-70
2022/04/23 19:05:14;;;;;;;7.38;3.05;;;;;;;;;;10415795;28;20332;-71
2022/04/23 19:10:15;;;;;;;7.10;2.92;;;;;;;;;;10406567;28;20053;-73
2022/04/23 19:15:15;;;;;;;15.18;3.92;;;;;;;;;;10410164;28;20456;-74
2022/04/23 19:20:16;;;;;;;10.77;3.30;;;;;;;;;;10555181;23;20108;-76
2022/04/23 19:30:35;;;;;;;8.30;2.97;;;;;;;;;;10535364;28;20019;-74
2022/04/23 19:35:35;;;;;;;7.97;3.03;;;;;;;;;;10531945;28;20035;-74
2022/04/23 19:40:36;;;;;;;8.57;2.93;;;;;;;;;;10527771;28;20024;-74
2022/04/23 19:45:37;;;;;;;9.13;3.58;;;;;;;;;;10520192;28;20182;-75
2022/04/23 19:50:37;;;;;;;8.23;3.47;;;;;;;;;;10516831;28;20035;-70
2022/04/23 19:55:39;;;;;;;7.68;3.72;;;;;;;;;;10526083;28;20028;-73
2022/04/23 20:00:39;;;;;;;8.40;3.78;;;;;;;;;;10528754;28;20403;-78
2022/04/23 20:05:39;;;;;;;16.53;3.40;;;;;;;;;;10524101;28;20028;-73
2022/04/23 20:10:40;;;;;;;7.70;2.97;;;;;;;;;;10523152;28;20413;-72
2022/04/23 20:15:40;;;;;;;8.25;3.30;;;;;;;;;;10531918;28;20024;-73
2022/04/23 20:20:41;;;;;;;5.40;2.90;;;;;;;;;;10519114;28;20052;-71
2022/04/23 20:25:41;;;;;;;8.30;3.38;;;;;;;;;;10523058;28;20525;-72
2022/04/23 20:30:42;;;;;;;8.13;3.20;;;;;;;;;;10533751;28;20035;-73
2022/04/23 20:41:02;;;;;;;8.38;2.40;;;;;;;;;;10533409;28;20020;-72
2022/04/23 20:46:02;;;;;;;5.88;2.15;;;;;;;;;;10522977;28;20028;-75
2022/04/23 20:51:03;;;;;;;6.18;2.15;;;;;;;;;;10520007;28;20024;-72
2022/04/23 20:56:05;;;;;;;5.72;2.72;;;;;;;;;;10516676;28;20032;-72
2022/04/23 21:01:06;;;;;;;9.05;3.03;;;;;;;;;;10518014;28;20065;-69
2022/04/23 21:06:06;;;;;;;10.57;2.85;;;;;;;;;;10531230;28;20544;-73
2022/04/23 21:11:07;;;;;;;15.98;3.60;;;;;;;;;;10538686;28;20438;-71
2022/04/23 21:16:08;;;;;;;18.17;3.72;;;;;;;;;;10514762;28;20039;-70
2022/04/23 21:21:08;;;;;;;9.98;3.53;;;;;;;;;;10533104;28;20123;-70
2022/04/23 21:26:08;;;;;;;13.13;4.03;;;;;;;;;;10521125;28;20031;-70
2022/04/23 21:31:09;;;;;;;10.25;3.72;;;;;;;;;;10519295;28;20113;-72
2022/04/23 21:36:09;;;;;;;10.15;3.17;;;;;;;;;;10515974;28;20040;-72
2022/04/23 21:46:28;;;;;;;6.63;2.53;;;;;;;;;;10530058;28;20032;-74
2022/04/23 21:51:28;;;;;;;3.33;2.25;;;;;;;;;;10523887;28;20028;-71
2022/04/23 21:56:29;;;;;;;9.02;3.10;;;;;;;;;;10516961;28;20419;-75
2022/04/23 22:01:29;;;;;;;7.40;3.53;;;;;;;;;;10519494;28;20028;-70
2022/04/23 22:06:29;;;;;;;30.17;7.60;;;;;;;;;;10531137;28;20043;-71
2022/04/23 22:11:30;;;;;;;10.73;5.00;;;;;;;;;;10512046;28;20062;-70
2022/04/23 22:16:30;;;;;;;9.63;3.80;;;;;;;;;;10515524;28;20167;-74
2022/04/23 22:21:30;;;;;;;5.13;3.17;;;;;;;;;;10536414;28;20012;-72
2022/04/23 22:26:31;;;;;;;4.93;2.40;;;;;;;;;;10528866;28;20024;-71
2022/04/23 22:31:31;;;;;;;6.23;2.03;;;;;;;;;;10497428;28;20276;-71
2022/04/23 22:36:31;;;;;;;8.73;2.22;;;;;;;;;;10518836;28;20024;-71
2022/04/23 22:41:32;;;;;;;2.37;1.50;;;;;;;;;;10518733;28;20114;-73
2022/04/23 22:46:32;;;;;;;7.53;2.33;;;;;;;;;;10496386;28;20028;-75
2022/04/23 22:51:33;;;;;;;9.10;1.98;;;;;;;;;;10541448;28;20386;-70
2022/04/23 22:56:33;;;;;;;7.13;2.25;;;;;;;;;;10552990;28;20039;-74
2022/04/23 23:01:34;;;;;;;7.50;2.10;;;;;;;;;;10551787;28;20020;-75
2022/04/23 23:06:34;;;;;;;5.45;2.22;;;;;;;;;;10552340;28;20023;-73
2022/04/23 23:11:35;;;;;;;4.82;2.05;;;;;;;;;;10556381;28;20561;-71
2022/04/23 23:16:35;;;;;;;6.35;1.65;;;;;;;;;;10564177;27;20050;-71
2022/04/23 23:21:35;;;;;;;8.82;2.40;;;;;;;;;;10551779;28;20023;-75
2022/04/23 23:26:36;;;;;;;5.32;2.13;;;;;;;;;;10551346;28;20103;-72
2022/04/23 23:31:36;;;;;;;5.00;2.20;;;;;;;;;;10550980;28;20065;-75
2022/04/23 23:36:36;;;;;;;3.83;2.03;;;;;;;;;;10541246;28;20305;-74
2022/04/23 23:41:37;;;;;;;5.25;1.83;;;;;;;;;;10508771;28;20510;-74
2022/04/23 23:46:37;;;;;;;6.97;2.25;;;;;;;;;;10509280;28;20377;-76
2022/04/23 23:51:37;;;;;;;4.30;2.23;;;;;;;;;;10509572;28;20020;-72
2022/04/23 23:56:38;;;;;;;8.80;2.50;;;;;;;;;;10527383;28;20032;-70
